Kinnelon, New Jersey
Current Conditions -  °F | °C
As of 3:53 AM on Friday 24 Oct 2014 (Local Time) from KCDW Reporting Station
Scattered Clouds Scattered Clouds  
Wind Chill: 50°   Ceiling: Unl
Heat Index: 50°   Visibility: 10mi
Dew Point: 41°   Wind: 5mph
Humidity: 71%   Direction: 300°WNW
Pressure: 29.8"   Gusts: NA
Location:  40.9863°N, 74.383°W
Report Text: KCDW 240753Z AUTO 30004KT 10SM FEW042 SCT080 10/05 A2980 RMK AO2 SLP097 T01000050 TSNO
Loading
Personal Weather Stations






























Interactive Weather Map
Tropical Storm Tracking
New forecast layout! Learn more

10-Day Weather Forecast

Advertisements
Track Severe Weather on mobile